sensor_id;sensor_type;location;lat;lon;timestamp;pressure;altitude;pressure_sealevel;temperature;humidity
77299;BME280;66361;52.034;20.656;2023-08-07T05:01:00;98331.28;;;15.02;98.62
77299;BME280;66361;52.034;20.656;2023-08-07T05:05:03;98327.94;;;15.08;96.25
77299;BME280;66361;52.034;20.656;2023-08-07T05:09:07;98327.63;;;14.95;97.16
77299;BME280;66361;52.034;20.656;2023-08-07T05:13:12;98335.09;;;14.91;99.54
77299;BME280;66361;52.034;20.656;2023-08-07T05:17:16;98323.78;;;15.14;96.93
77299;BME280;66361;52.034;20.656;2023-08-07T05:21:19;98318.06;;;15.49;95.83
77299;BME280;66361;52.034;20.656;2023-08-07T05:25:22;98320.59;;;15.81;92.99
77299;BME280;66361;52.034;20.656;2023-08-07T05:29:25;98327.00;;;16.26;86.63
77299;BME280;66361;52.034;20.656;2023-08-07T05:33:30;98330.81;;;16.23;87.20
77299;BME280;66361;52.034;20.656;2023-08-07T05:37:33;98338.91;;;16.07;85.98
77299;BME280;66361;52.034;20.656;2023-08-07T05:41:36;98334.31;;;15.93;87.45
77299;BME280;66361;52.034;20.656;2023-08-07T05:45:40;98338.03;;;15.84;86.36
77299;BME280;66361;52.034;20.656;2023-08-07T05:49:45;98334.22;;;15.78;88.03
77299;BME280;66361;52.034;20.656;2023-08-07T05:53:49;98333.97;;;15.96;87.10
77299;BME280;66361;52.034;20.656;2023-08-07T05:57:53;98350.31;;;15.85;89.17
77299;BME280;66361;52.034;20.656;2023-08-07T06:01:56;98346.28;;;15.97;88.87
77299;BME280;66361;52.034;20.656;2023-08-07T06:06:02;98346.22;;;16.36;84.78
77299;BME280;66361;52.034;20.656;2023-08-07T06:10:06;98347.72;;;17.36;80.34
77299;BME280;66361;52.034;20.656;2023-08-07T06:14:09;98344.63;;;18.27;72.29
77299;BME280;66361;52.034;20.656;2023-08-07T06:18:12;98336.16;;;18.45;69.77
77299;BME280;66361;52.034;20.656;2023-08-07T06:22:17;98346.69;;;18.67;66.95
77299;BME280;66361;52.034;20.656;2023-08-07T06:26:20;98348.13;;;18.84;66.15
77299;BME280;66361;52.034;20.656;2023-08-07T06:30:23;98354.16;;;18.72;64.85
77299;BME280;66361;52.034;20.656;2023-08-07T06:34:26;98373.75;;;18.58;66.91
77299;BME280;66361;52.034;20.656;2023-08-07T06:38:31;98352.75;;;18.19;66.70
77299;BME280;66361;52.034;20.656;2023-08-07T06:42:34;98357.72;;;18.07;69.67
77299;BME280;66361;52.034;20.656;2023-08-07T06:46:37;98367.44;;;17.94;70.27
77299;BME280;66361;52.034;20.656;2023-08-07T06:50:40;98356.03;;;17.70;71.23
77299;BME280;66361;52.034;20.656;2023-08-07T06:54:44;98360.41;;;17.34;72.45
77299;BME280;66361;52.034;20.656;2023-08-07T06:58:48;98375.16;;;17.07;75.02
77299;BME280;66361;52.034;20.656;2023-08-07T07:02:51;98378.38;;;17.03;77.70
77299;BME280;66361;52.034;20.656;2023-08-07T07:06:54;98381.84;;;17.55;73.91
77299;BME280;66361;52.034;20.656;2023-08-07T07:10:59;98387.47;;;18.04;70.84
77299;BME280;66361;52.034;20.656;2023-08-07T07:15:03;98393.09;;;18.09;69.77
77299;BME280;66361;52.034;20.656;2023-08-07T07:19:07;98387.72;;;18.24;69.51
77299;BME280;66361;52.034;20.656;2023-08-07T07:23:11;98395.75;;;17.95;69.36
77299;BME280;66361;52.034;20.656;2023-08-07T07:27:16;98398.91;;;18.13;73.08
77299;BME280;66361;52.034;20.656;2023-08-07T07:31:24;98410.94;;;19.44;64.01
77299;BME280;66361;52.034;20.656;2023-08-07T07:35:29;98407.34;;;20.34;61.39
77299;BME280;66361;52.034;20.656;2023-08-07T07:39:34;98405.19;;;22.14;58.39
77299;BME280;66361;52.034;20.656;2023-08-07T07:43:38;98404.53;;;20.61;59.79
77299;BME280;66361;52.034;20.656;2023-08-07T07:47:41;98417.19;;;19.86;63.45
77299;BME280;66361;52.034;20.656;2023-08-07T07:51:45;98423.63;;;19.98;61.35
77299;BME280;66361;52.034;20.656;2023-08-07T07:55:51;98426.31;;;23.74;49.95
77299;BME280;66361;52.034;20.656;2023-08-07T07:59:56;98438.03;;;24.23;49.14
77299;BME280;66361;52.034;20.656;2023-08-07T08:03:59;98436.19;;;22.61;53.36
77299;BME280;66361;52.034;20.656;2023-08-07T08:08:05;98447.81;;;21.52;54.46
77299;BME280;66361;52.034;20.656;2023-08-07T08:12:09;98449.03;;;22.53;54.10
77299;BME280;66361;52.034;20.656;2023-08-07T08:16:17;98445.00;;;23.44;49.24
77299;BME280;66361;52.034;20.656;2023-08-07T08:20:20;98443.22;;;24.90;48.78
77299;BME280;66361;52.034;20.656;2023-08-07T08:24:24;98440.31;;;25.45;48.01
77299;BME280;66361;52.034;20.656;2023-08-07T08:28:30;98439.13;;;24.99;46.46
77299;BME280;66361;52.034;20.656;2023-08-07T08:32:40;98449.69;;;23.24;50.43
77299;BME280;66361;52.034;20.656;2023-08-07T08:36:43;98462.81;;;22.18;51.70
77299;BME280;66361;52.034;20.656;2023-08-07T08:40:51;98465.88;;;24.71;47.65
77299;BME280;66361;52.034;20.656;2023-08-07T08:44:55;98470.34;;;24.66;45.89
77299;BME280;66361;52.034;20.656;2023-08-07T08:49:01;98463.59;;;25.58;45.65
77299;BME280;66361;52.034;20.656;2023-08-07T08:53:07;98466.44;;;26.32;43.57
77299;BME280;66361;52.034;20.656;2023-08-07T08:57:13;98448.69;;;27.05;40.80
77299;BME280;66361;52.034;20.656;2023-08-07T09:01:17;98464.59;;;25.03;44.63
77299;BME280;66361;52.034;20.656;2023-08-07T09:05:28;98469.00;;;22.19;50.32
77299;BME280;66361;52.034;20.656;2023-08-07T09:09:32;98459.22;;;24.01;48.95
77299;BME280;66361;52.034;20.656;2023-08-07T09:13:40;98444.63;;;25.23;43.68
77299;BME280;66361;52.034;20.656;2023-08-07T09:17:45;98461.66;;;25.88;41.55
77299;BME280;66361;52.034;20.656;2023-08-07T09:21:50;98476.31;;;26.90;42.24
77299;BME280;66361;52.034;20.656;2023-08-07T09:26:04;98470.78;;;26.45;38.56
77299;BME280;66361;52.034;20.656;2023-08-07T09:30:09;98483.53;;;27.58;39.33
77299;BME280;66361;52.034;20.656;2023-08-07T09:34:20;98495.94;;;27.25;38.84
77299;BME280;66361;52.034;20.656;2023-08-07T09:38:30;98498.56;;;26.06;40.70
77299;BME280;66361;52.034;20.656;2023-08-07T09:42:37;98506.84;;;27.02;40.54
77299;BME280;66361;52.034;20.656;2023-08-07T09:46:48;98517.13;;;26.60;39.48
77299;BME280;66361;52.034;20.656;2023-08-07T09:50:51;98526.00;;;25.79;39.66
77299;BME280;66361;52.034;20.656;2023-08-07T09:54:58;98533.03;;;23.44;44.93
77299;BME280;66361;52.034;20.656;2023-08-07T09:59:01;98534.44;;;23.15;45.49
77299;BME280;66361;52.034;20.656;2023-08-07T10:03:04;98533.09;;;23.93;45.48
77299;BME280;66361;52.034;20.656;2023-08-07T10:07:09;98544.31;;;25.06;43.33
77299;BME280;66361;52.034;20.656;2023-08-07T10:11:17;98542.59;;;25.41;41.54
77299;BME280;66361;52.034;20.656;2023-08-07T10:15:21;98555.00;;;26.14;41.41
77299;BME280;66361;52.034;20.656;2023-08-07T10:19:24;98554.28;;;26.18;41.38
77299;BME280;66361;52.034;20.656;2023-08-07T10:23:27;98554.47;;;25.40;40.17
77299;BME280;66361;52.034;20.656;2023-08-07T10:27:37;98544.16;;;24.28;43.72
77299;BME280;66361;52.034;20.656;2023-08-07T10:31:44;98552.19;;;24.35;43.48
77299;BME280;66361;52.034;20.656;2023-08-07T10:35:48;98568.66;;;24.27;45.32
77299;BME280;66361;52.034;20.656;2023-08-07T10:40:02;98568.63;;;23.14;46.98
77299;BME280;66361;52.034;20.656;2023-08-07T10:44:17;98575.69;;;22.32;48.53
77299;BME280;66361;52.034;20.656;2023-08-07T10:48:21;98569.53;;;21.18;50.68
77299;BME280;66361;52.034;20.656;2023-08-07T10:52:27;98568.88;;;20.55;54.46
77299;BME280;66361;52.034;20.656;2023-08-07T10:56:32;98575.72;;;21.12;50.36
77299;BME280;66361;52.034;20.656;2023-08-07T11:00:36;98566.22;;;21.09;52.46
77299;BME280;66361;52.034;20.656;2023-08-07T11:04:40;98569.97;;;21.21;54.49
77299;BME280;66361;52.034;20.656;2023-08-07T11:08:43;98565.59;;;21.07;50.61
77299;BME280;66361;52.034;20.656;2023-08-07T11:12:46;98573.66;;;21.14;51.34
77299;BME280;66361;52.034;20.656;2023-08-07T11:16:56;98556.47;;;22.22;50.02
77299;BME280;66361;52.034;20.656;2023-08-07T11:21:00;98556.59;;;23.48;47.14
77299;BME280;66361;52.034;20.656;2023-08-07T11:25:03;98552.09;;;23.98;45.53
77299;BME280;66361;52.034;20.656;2023-08-07T11:29:06;98561.34;;;24.52;43.10
77299;BME280;66361;52.034;20.656;2023-08-07T11:33:13;98559.84;;;25.11;43.59
77299;BME280;66361;52.034;20.656;2023-08-07T11:37:17;98554.19;;;23.96;45.74
77299;BME280;66361;52.034;20.656;2023-08-07T11:41:21;98558.38;;;22.79;46.55
77299;BME280;66361;52.034;20.656;2023-08-07T11:45:24;98559.78;;;22.17;47.42
77299;BME280;66361;52.034;20.656;2023-08-07T11:49:28;98563.91;;;21.80;48.46
77299;BME280;66361;52.034;20.656;2023-08-07T11:53:34;98547.34;;;22.09;45.05
77299;BME280;66361;52.034;20.656;2023-08-07T11:57:38;98554.94;;;22.58;47.19
77299;BME280;66361;52.034;20.656;2023-08-07T12:01:45;98558.16;;;23.31;45.52
77299;BME280;66361;52.034;20.656;2023-08-07T12:05:51;98553.31;;;23.78;45.96
77299;BME280;66361;52.034;20.656;2023-08-07T12:09:53;98558.69;;;23.08;43.83
77299;BME280;66361;52.034;20.656;2023-08-07T12:13:59;98558.66;;;23.53;43.97
77299;BME280;66361;52.034;20.656;2023-08-07T12:18:03;98554.41;;;22.88;44.13
77299;BME280;66361;52.034;20.656;2023-08-07T12:22:09;98568.25;;;22.20;45.66
77299;BME280;66361;52.034;20.656;2023-08-07T12:26:12;98570.31;;;22.18;47.64
77299;BME280;66361;52.034;20.656;2023-08-07T12:30:15;98577.72;;;22.43;48.23
77299;BME280;66361;52.034;20.656;2023-08-07T12:34:19;98584.34;;;21.94;47.48
77299;BME280;66361;52.034;20.656;2023-08-07T12:38:28;98598.88;;;21.26;49.00
77299;BME280;66361;52.034;20.656;2023-08-07T12:42:32;98610.84;;;21.23;50.19
77299;BME280;66361;52.034;20.656;2023-08-07T12:46:35;98606.78;;;21.34;52.74
77299;BME280;66361;52.034;20.656;2023-08-07T12:50:40;98604.03;;;22.21;50.49
77299;BME280;66361;52.034;20.656;2023-08-07T12:54:48;98606.25;;;21.71;48.93
77299;BME280;66361;52.034;20.656;2023-08-07T12:58:51;98613.00;;;21.48;51.58
77299;BME280;66361;52.034;20.656;2023-08-07T13:02:55;98625.28;;;21.22;50.33
77299;BME280;66361;52.034;20.656;2023-08-07T13:06:58;98615.66;;;20.53;51.26
77299;BME280;66361;52.034;20.656;2023-08-07T13:11:06;98634.13;;;20.20;53.00
77299;BME280;66361;52.034;20.656;2023-08-07T13:15:14;98637.50;;;20.01;53.07
77299;BME280;66361;52.034;20.656;2023-08-07T13:19:19;98635.06;;;20.55;53.12
77299;BME280;66361;52.034;20.656;2023-08-07T13:23:22;98638.97;;;20.87;51.96
77299;BME280;66361;52.034;20.656;2023-08-07T13:27:27;98632.09;;;20.77;52.27
77299;BME280;66361;52.034;20.656;2023-08-07T13:31:31;98634.88;;;20.56;52.20
77299;BME280;66361;52.034;20.656;2023-08-07T13:35:34;98643.22;;;19.98;55.16
77299;BME280;66361;52.034;20.656;2023-08-07T13:39:37;98646.81;;;19.62;56.81
77299;BME280;66361;52.034;20.656;2023-08-07T13:43:45;98648.13;;;19.37;58.48
77299;BME280;66361;52.034;20.656;2023-08-07T13:47:47;98660.97;;;19.27;58.80
77299;BME280;66361;52.034;20.656;2023-08-07T13:51:52;98659.41;;;19.32;59.57
77299;BME280;66361;52.034;20.656;2023-08-07T13:55:58;98667.16;;;19.27;60.05
77299;BME280;66361;52.034;20.656;2023-08-07T14:00:08;98674.69;;;19.03;60.87
77299;BME280;66361;52.034;20.656;2023-08-07T14:04:12;98678.53;;;19.00;60.71
77299;BME280;66361;52.034;20.656;2023-08-07T14:08:18;98677.59;;;19.08;60.52
77299;BME280;66361;52.034;20.656;2023-08-07T14:12:21;98672.63;;;19.05;58.96
77299;BME280;66361;52.034;20.656;2023-08-07T14:16:25;98677.06;;;19.12;61.54
77299;BME280;66361;52.034;20.656;2023-08-07T14:20:38;98685.81;;;19.21;60.34
77299;BME280;66361;52.034;20.656;2023-08-07T14:25:00;98691.63;;;19.24;58.21
77299;BME280;66361;52.034;20.656;2023-08-07T14:29:07;98686.72;;;19.28;59.33
77299;BME280;66361;52.034;20.656;2023-08-07T14:33:12;98691.34;;;19.19;58.13
77299;BME280;66361;52.034;20.656;2023-08-07T14:37:15;98695.09;;;19.54;58.71
77299;BME280;66361;52.034;20.656;2023-08-07T14:41:18;98694.09;;;19.98;57.92
77299;BME280;66361;52.034;20.656;2023-08-07T14:45:22;98683.78;;;20.65;57.03
77299;BME280;66361;52.034;20.656;2023-08-07T14:49:26;98679.78;;;21.23;52.30
77299;BME280;66361;52.034;20.656;2023-08-07T14:53:30;98684.28;;;21.16;52.42
77299;BME280;66361;52.034;20.656;2023-08-07T14:57:36;98681.78;;;21.08;55.52
77299;BME280;66361;52.034;20.656;2023-08-07T15:01:40;98670.00;;;20.68;51.17
77299;BME280;66361;52.034;20.656;2023-08-07T15:05:44;98673.78;;;20.31;50.99
77299;BME280;66361;52.034;20.656;2023-08-07T15:09:47;98663.81;;;20.18;50.92
77299;BME280;66361;52.034;20.656;2023-08-07T15:13:51;98662.94;;;20.11;52.10
77299;BME280;66361;52.034;20.656;2023-08-07T15:17:55;98661.78;;;19.99;50.91
77299;BME280;66361;52.034;20.656;2023-08-07T15:22:00;98670.13;;;19.90;52.09
77299;BME280;66361;52.034;20.656;2023-08-07T15:26:07;98654.25;;;20.09;51.38
77299;BME280;66361;52.034;20.656;2023-08-07T15:30:11;98656.81;;;19.96;51.31
77299;BME280;66361;52.034;20.656;2023-08-07T15:34:14;98663.72;;;19.84;52.48
77299;BME280;66361;52.034;20.656;2023-08-07T15:38:19;98656.94;;;19.88;51.06
77299;BME280;66361;52.034;20.656;2023-08-07T15:42:23;98658.69;;;19.74;51.98
77299;BME280;66361;52.034;20.656;2023-08-07T15:46:26;98668.72;;;19.94;52.87
77299;BME280;66361;52.034;20.656;2023-08-07T15:50:29;98670.19;;;19.75;51.69
77299;BME280;66361;52.034;20.656;2023-08-07T15:54:40;98678.72;;;19.64;54.69
77299;BME280;66361;52.034;20.656;2023-08-07T15:58:44;98681.16;;;19.59;54.48
77299;BME280;66361;52.034;20.656;2023-08-07T16:02:47;98691.09;;;19.86;53.33
77299;BME280;66361;52.034;20.656;2023-08-07T16:06:53;98684.16;;;19.70;54.24
77299;BME280;66361;52.034;20.656;2023-08-07T16:10:58;98702.69;;;19.72;52.87
77299;BME280;66361;52.034;20.656;2023-08-07T16:15:03;98699.31;;;19.63;55.21
77299;BME280;66361;52.034;20.656;2023-08-07T16:19:06;98705.50;;;19.64;54.08
77299;BME280;66361;52.034;20.656;2023-08-07T16:23:13;98717.34;;;19.55;53.38
77299;BME280;66361;52.034;20.656;2023-08-07T16:27:17;98732.72;;;19.38;54.81
77299;BME280;66361;52.034;20.656;2023-08-07T16:31:20;98728.88;;;19.26;52.41
77299;BME280;66361;52.034;20.656;2023-08-07T16:35:24;98729.78;;;19.18;52.93
77299;BME280;66361;52.034;20.656;2023-08-07T16:39:27;98735.88;;;19.12;54.10
77299;BME280;66361;52.034;20.656;2023-08-07T16:43:32;98738.41;;;19.14;53.74
77299;BME280;66361;52.034;20.656;2023-08-07T16:47:35;98741.44;;;19.11;54.01
77299;BME280;66361;52.034;20.656;2023-08-07T16:51:38;98741.06;;;18.99;54.04
77299;BME280;66361;52.034;20.656;2023-08-07T16:55:42;98738.56;;;18.98;54.88
77299;BME280;66361;52.034;20.656;2023-08-07T16:59:47;98745.00;;;18.88;56.00
77299;BME280;66361;52.034;20.656;2023-08-07T17:03:50;98752.03;;;19.04;55.12
77299;BME280;66361;52.034;20.656;2023-08-07T17:07:54;98756.06;;;19.15;55.68
77299;BME280;66361;52.034;20.656;2023-08-07T17:11:58;98761.44;;;19.15;55.01
77299;BME280;66361;52.034;20.656;2023-08-07T17:16:03;98766.59;;;19.02;54.98
77299;BME280;66361;52.034;20.656;2023-08-07T17:20:07;98775.56;;;18.57;57.53
77299;BME280;66361;52.034;20.656;2023-08-07T17:24:10;98779.28;;;18.25;57.97
77299;BME280;66361;52.034;20.656;2023-08-07T17:28:13;98776.13;;;17.99;58.67
77299;BME280;66361;52.034;20.656;2023-08-07T17:32:18;98792.41;;;18.12;57.17
77299;BME280;66361;52.034;20.656;2023-08-07T17:36:25;98791.50;;;17.97;58.18
77299;BME280;66361;52.034;20.656;2023-08-07T17:40:29;98803.00;;;17.97;59.35
77299;BME280;66361;52.034;20.656;2023-08-07T17:44:33;98810.19;;;17.97;60.29
77299;BME280;66361;52.034;20.656;2023-08-07T17:48:38;98814.22;;;17.92;60.28
77299;BME280;66361;52.034;20.656;2023-08-07T17:52:45;98815.41;;;17.90;61.83
77299;BME280;66361;52.034;20.656;2023-08-07T17:56:49;98820.41;;;17.85;61.88
77299;BME280;66361;52.034;20.656;2023-08-07T18:00:52;98820.28;;;17.78;62.29
77299;BME280;66361;52.034;20.656;2023-08-07T18:04:57;98825.97;;;17.75;62.55
77299;BME280;66361;52.034;20.656;2023-08-07T18:09:00;98833.06;;;17.60;62.85
77299;BME280;66361;52.034;20.656;2023-08-07T18:13:03;98825.56;;;17.39;62.65
77299;BME280;66361;52.034;20.656;2023-08-07T18:17:07;98824.69;;;17.00;65.86
77299;BME280;66361;52.034;20.656;2023-08-07T18:21:14;98840.84;;;16.82;65.02
77299;BME280;66361;52.034;20.656;2023-08-07T18:25:19;98844.84;;;16.62;67.27
77299;BME280;66361;52.034;20.656;2023-08-07T18:29:22;98855.63;;;16.44;69.16
77299;BME280;66361;52.034;20.656;2023-08-07T18:33:25;98854.75;;;16.20;69.23
77299;BME280;66361;52.034;20.656;2023-08-07T18:37:30;98861.38;;;15.99;69.89
77299;BME280;66361;52.034;20.656;2023-08-07T18:41:33;98863.28;;;15.81;72.10
77299;BME280;66361;52.034;20.656;2023-08-07T18:45:36;98858.41;;;15.69;72.00
77299;BME280;66361;52.034;20.656;2023-08-07T18:49:40;98860.66;;;15.56;72.46
77299;BME280;66361;52.034;20.656;2023-08-07T18:53:44;98868.84;;;15.62;72.67
77299;BME280;66361;52.034;20.656;2023-08-07T18:57:47;98862.63;;;15.45;73.16
77299;BME280;66361;52.034;20.656;2023-08-07T19:01:50;98869.63;;;15.29;73.24
77299;BME280;66361;52.034;20.656;2023-08-07T19:05:54;98871.72;;;15.17;74.49
77299;BME280;66361;52.034;20.656;2023-08-07T19:09:58;98870.00;;;15.08;76.14
77299;BME280;66361;52.034;20.656;2023-08-07T19:14:02;98872.72;;;14.90;76.15
77299;BME280;66361;52.034;20.656;2023-08-07T19:18:05;98874.09;;;14.77;77.78
77299;BME280;66361;52.034;20.656;2023-08-07T19:22:09;98876.63;;;14.61;78.43
77299;BME280;66361;52.034;20.656;2023-08-07T19:26:13;98885.78;;;14.48;79.10
77299;BME280;66361;52.034;20.656;2023-08-07T19:30:16;98895.03;;;14.44;80.48
77299;BME280;66361;52.034;20.656;2023-08-07T19:34:20;98889.88;;;14.43;80.56
77299;BME280;66361;52.034;20.656;2023-08-07T19:38:23;98904.44;;;14.39;81.70
77299;BME280;66361;52.034;20.656;2023-08-07T19:42:28;98901.63;;;14.40;81.56
77299;BME280;66361;52.034;20.656;2023-08-07T19:46:32;98901.34;;;14.43;81.28
77299;BME280;66361;52.034;20.656;2023-08-07T19:50:36;98914.91;;;14.58;80.76
77299;BME280;66361;52.034;20.656;2023-08-07T19:54:43;98910.91;;;14.72;80.43
77299;BME280;66361;52.034;20.656;2023-08-07T19:58:48;98905.06;;;14.68;80.59
77299;BME280;66361;52.034;20.656;2023-08-07T20:02:53;98901.34;;;14.79;80.39
77299;BME280;66361;52.034;20.656;2023-08-07T20:06:58;98893.88;;;14.65;80.26
77299;BME280;66361;52.034;20.656;2023-08-07T20:11:04;98907.97;;;14.57;81.87
77299;BME280;66361;52.034;20.656;2023-08-07T20:15:09;98904.16;;;14.60;81.99
77299;BME280;66361;52.034;20.656;2023-08-07T20:19:14;98915.69;;;14.68;82.08
77299;BME280;66361;52.034;20.656;2023-08-07T20:23:18;98911.94;;;14.61;83.92
77299;BME280;66361;52.034;20.656;2023-08-07T20:27:21;98915.53;;;14.70;85.43
77299;BME280;66361;52.034;20.656;2023-08-07T20:31:26;98909.81;;;14.65;84.05
77299;BME280;66361;52.034;20.656;2023-08-07T20:35:29;98923.19;;;14.73;85.00
77299;BME280;66361;52.034;20.656;2023-08-07T20:39:32;98922.81;;;14.68;85.45
77299;BME280;66361;52.034;20.656;2023-08-07T20:43:35;98924.47;;;14.69;85.82
77299;BME280;66361;52.034;20.656;2023-08-07T20:47:40;98925.25;;;14.79;85.22
77299;BME280;66361;52.034;20.656;2023-08-07T20:51:43;98931.38;;;14.97;84.29
77299;BME280;66361;52.034;20.656;2023-08-07T20:55:46;98938.19;;;14.99;85.60
77299;BME280;66361;52.034;20.656;2023-08-07T20:59:49;98934.56;;;15.00;84.16
77299;BME280;66361;52.034;20.656;2023-08-07T21:03:54;98938.25;;;15.08;84.02
77299;BME280;66361;52.034;20.656;2023-08-07T21:07:57;98934.94;;;15.06;84.16
77299;BME280;66361;52.034;20.656;2023-08-07T21:12:01;98933.34;;;15.13;84.17
77299;BME280;66361;52.034;20.656;2023-08-07T21:16:05;98941.97;;;15.15;83.49
77299;BME280;66361;52.034;20.656;2023-08-07T21:20:10;98946.72;;;15.29;83.24
77299;BME280;66361;52.034;20.656;2023-08-07T21:24:14;98944.38;;;15.26;85.47
77299;BME280;66361;52.034;20.656;2023-08-07T21:28:17;98949.16;;;15.22;86.91
77299;BME280;66361;52.034;20.656;2023-08-07T21:32:20;98949.41;;;15.11;88.81
77299;BME280;66361;52.034;20.656;2023-08-07T21:36:25;98945.91;;;15.11;91.32
77299;BME280;66361;52.034;20.656;2023-08-07T21:40:31;98944.56;;;15.07;91.33
77299;BME280;66361;52.034;20.656;2023-08-07T21:44:35;98938.56;;;15.04;92.98
77299;BME280;66361;52.034;20.656;2023-08-07T21:48:38;98947.84;;;15.00;94.83
77299;BME280;66361;52.034;20.656;2023-08-07T21:52:43;98947.53;;;15.03;93.56
77299;BME280;66361;52.034;20.656;2023-08-07T21:56:46;98937.44;;;15.07;94.40
77299;BME280;66361;52.034;20.656;2023-08-07T22:00:50;98942.06;;;15.05;95.21
77299;BME280;66361;52.034;20.656;2023-08-07T22:04:53;98948.75;;;15.09;95.37
77299;BME280;66361;52.034;20.656;2023-08-07T22:08:58;98956.00;;;15.25;94.75
77299;BME280;66361;52.034;20.656;2023-08-07T22:13:01;98946.97;;;15.18;94.91
77299;BME280;66361;52.034;20.656;2023-08-07T22:17:13;98959.97;;;15.21;95.86
77299;BME280;66361;52.034;20.656;2023-08-07T22:21:16;98952.88;;;15.29;94.93
77299;BME280;66361;52.034;20.656;2023-08-07T22:25:20;98957.53;;;15.27;94.87
77299;BME280;66361;52.034;20.656;2023-08-07T22:29:23;98954.03;;;15.27;94.85
77299;BME280;66361;52.034;20.656;2023-08-07T22:33:27;98965.03;;;15.32;94.15
77299;BME280;66361;52.034;20.656;2023-08-07T22:37:30;98968.25;;;15.35;93.89
77299;BME280;66361;52.034;20.656;2023-08-07T22:41:34;98953.81;;;15.38;94.31
77299;BME280;66361;52.034;20.656;2023-08-07T22:45:40;98962.84;;;15.27;94.47
77299;BME280;66361;52.034;20.656;2023-08-07T22:49:45;98965.66;;;15.26;94.27
77299;BME280;66361;52.034;20.656;2023-08-07T22:53:48;98967.19;;;15.28;94.01
77299;BME280;66361;52.034;20.656;2023-08-07T22:57:55;98965.31;;;15.29;94.71
